sensor_id;sensor_type;location;lat;lon;timestamp;P1;durP1;ratioP1;P2;durP2;ratioP2
41546;SDS011;27271;45.412;10.852;2023-01-09T00:02:28;2.97;;;1.20;;
41546;SDS011;27271;45.412;10.852;2023-01-09T00:05:50;1.02;;;0.80;;
41546;SDS011;27271;45.412;10.852;2023-01-09T00:09:13;2.22;;;1.17;;
41546;SDS011;27271;45.412;10.852;2023-01-09T00:12:35;1.13;;;0.60;;
41546;SDS011;27271;45.412;10.852;2023-01-09T00:15:57;1.10;;;0.65;;
41546;SDS011;27271;45.412;10.852;2023-01-09T00:19:20;2.15;;;0.65;;
41546;SDS011;27271;45.412;10.852;2023-01-09T00:22:42;2.00;;;1.00;;
41546;SDS011;27271;45.412;10.852;2023-01-09T00:26:05;2.25;;;0.63;;
41546;SDS011;27271;45.412;10.852;2023-01-09T00:29:30;1.50;;;0.73;;
41546;SDS011;27271;45.412;10.852;2023-01-09T00:32:52;0.63;;;0.57;;
41546;SDS011;27271;45.412;10.852;2023-01-09T00:36:15;1.50;;;0.65;;
41546;SDS011;27271;45.412;10.852;2023-01-09T00:39:37;1.10;;;0.50;;
41546;SDS011;27271;45.412;10.852;2023-01-09T00:43:00;0.95;;;0.40;;
41546;SDS011;27271;45.412;10.852;2023-01-09T00:46:24;0.80;;;0.60;;
41546;SDS011;27271;45.412;10.852;2023-01-09T00:49:51;0.85;;;0.45;;
41546;SDS011;27271;45.412;10.852;2023-01-09T00:53:16;0.90;;;0.57;;
41546;SDS011;27271;45.412;10.852;2023-01-09T00:56:41;0.80;;;0.70;;
41546;SDS011;27271;45.412;10.852;2023-01-09T01:00:03;1.27;;;0.68;;
41546;SDS011;27271;45.412;10.852;2023-01-09T01:03:26;2.63;;;1.42;;
41546;SDS011;27271;45.412;10.852;2023-01-09T01:06:48;1.95;;;1.13;;
41546;SDS011;27271;45.412;10.852;2023-01-09T01:12:26;2.60;;;1.10;;
41546;SDS011;27271;45.412;10.852;2023-01-09T01:15:48;3.33;;;1.35;;
41546;SDS011;27271;45.412;10.852;2023-01-09T01:19:10;3.80;;;1.45;;
41546;SDS011;27271;45.412;10.852;2023-01-09T01:22:32;5.40;;;2.90;;
41546;SDS011;27271;45.412;10.852;2023-01-09T01:25:54;7.60;;;3.28;;
41546;SDS011;27271;45.412;10.852;2023-01-09T01:29:16;4.78;;;3.10;;
41546;SDS011;27271;45.412;10.852;2023-01-09T01:32:38;8.07;;;4.00;;
41546;SDS011;27271;45.412;10.852;2023-01-09T01:36:05;8.20;;;4.13;;
41546;SDS011;27271;45.412;10.852;2023-01-09T01:39:28;8.15;;;3.72;;
41546;SDS011;27271;45.412;10.852;2023-01-09T01:42:51;7.53;;;3.92;;
41546;SDS011;27271;45.412;10.852;2023-01-09T01:46:15;4.72;;;3.17;;
41546;SDS011;27271;45.412;10.852;2023-01-09T01:49:38;5.22;;;3.58;;
41546;SDS011;27271;45.412;10.852;2023-01-09T01:53:02;6.65;;;4.15;;
41546;SDS011;27271;45.412;10.852;2023-01-09T01:56:34;5.88;;;3.20;;
41546;SDS011;27271;45.412;10.852;2023-01-09T02:00:00;10.00;;;4.30;;
41546;SDS011;27271;45.412;10.852;2023-01-09T02:03:25;6.13;;;3.50;;
41546;SDS011;27271;45.412;10.852;2023-01-09T02:06:49;6.13;;;3.50;;
41546;SDS011;27271;45.412;10.852;2023-01-09T02:10:13;6.97;;;3.60;;
41546;SDS011;27271;45.412;10.852;2023-01-09T02:13:36;5.82;;;3.63;;
41546;SDS011;27271;45.412;10.852;2023-01-09T02:17:20;5.82;;;3.03;;
41546;SDS011;27271;45.412;10.852;2023-01-09T02:21:03;5.85;;;3.50;;
41546;SDS011;27271;45.412;10.852;2023-01-09T02:28:38;6.10;;;3.25;;
41546;SDS011;27271;45.412;10.852;2023-01-09T02:32:14;5.65;;;3.33;;
41546;SDS011;27271;45.412;10.852;2023-01-09T02:39:36;6.47;;;3.55;;
41546;SDS011;27271;45.412;10.852;2023-01-09T02:43:14;6.15;;;3.03;;
41546;SDS011;27271;45.412;10.852;2023-01-09T02:46:37;5.53;;;3.17;;
41546;SDS011;27271;45.412;10.852;2023-01-09T02:50:00;5.40;;;3.05;;
41546;SDS011;27271;45.412;10.852;2023-01-09T03:08:36;8.50;;;4.13;;
41546;SDS011;27271;45.412;10.852;2023-01-09T03:15:33;11.43;;;5.22;;
41546;SDS011;27271;45.412;10.852;2023-01-09T03:18:57;16.10;;;6.85;;
41546;SDS011;27271;45.412;10.852;2023-01-09T03:22:20;13.82;;;6.10;;
41546;SDS011;27271;45.412;10.852;2023-01-09T03:25:42;9.68;;;4.78;;
41546;SDS011;27271;45.412;10.852;2023-01-09T03:29:05;8.27;;;4.10;;
41546;SDS011;27271;45.412;10.852;2023-01-09T03:32:27;11.07;;;5.13;;
41546;SDS011;27271;45.412;10.852;2023-01-09T03:35:49;7.45;;;4.70;;
41546;SDS011;27271;45.412;10.852;2023-01-09T03:39:11;10.55;;;5.22;;
41546;SDS011;27271;45.412;10.852;2023-01-09T03:42:33;9.52;;;4.85;;
41546;SDS011;27271;45.412;10.852;2023-01-09T03:45:55;9.85;;;5.30;;
41546;SDS011;27271;45.412;10.852;2023-01-09T03:49:17;12.68;;;5.25;;
41546;SDS011;27271;45.412;10.852;2023-01-09T03:52:39;8.18;;;4.47;;
41546;SDS011;27271;45.412;10.852;2023-01-09T03:56:01;9.63;;;4.53;;
41546;SDS011;27271;45.412;10.852;2023-01-09T03:59:23;9.15;;;4.78;;
41546;SDS011;27271;45.412;10.852;2023-01-09T04:02:46;8.02;;;4.15;;
41546;SDS011;27271;45.412;10.852;2023-01-09T04:06:08;8.73;;;4.80;;
41546;SDS011;27271;45.412;10.852;2023-01-09T04:09:31;7.40;;;4.18;;
41546;SDS011;27271;45.412;10.852;2023-01-09T04:12:53;8.65;;;4.78;;
41546;SDS011;27271;45.412;10.852;2023-01-09T04:16:15;8.63;;;3.80;;
41546;SDS011;27271;45.412;10.852;2023-01-09T04:19:37;6.70;;;3.90;;
41546;SDS011;27271;45.412;10.852;2023-01-09T04:22:59;8.27;;;4.65;;
41546;SDS011;27271;45.412;10.852;2023-01-09T04:26:21;9.43;;;4.53;;
41546;SDS011;27271;45.412;10.852;2023-01-09T04:29:43;7.53;;;4.20;;
41546;SDS011;27271;45.412;10.852;2023-01-09T04:33:06;8.50;;;4.32;;
41546;SDS011;27271;45.412;10.852;2023-01-09T04:36:28;9.15;;;4.78;;
41546;SDS011;27271;45.412;10.852;2023-01-09T04:39:50;7.32;;;3.80;;
41546;SDS011;27271;45.412;10.852;2023-01-09T04:43:16;7.03;;;3.63;;
41546;SDS011;27271;45.412;10.852;2023-01-09T04:46:38;9.45;;;3.90;;
41546;SDS011;27271;45.412;10.852;2023-01-09T04:50:00;6.70;;;3.50;;
41546;SDS011;27271;45.412;10.852;2023-01-09T04:53:22;8.60;;;3.40;;
41546;SDS011;27271;45.412;10.852;2023-01-09T04:56:44;8.50;;;3.53;;
41546;SDS011;27271;45.412;10.852;2023-01-09T05:00:07;7.13;;;3.47;;
41546;SDS011;27271;45.412;10.852;2023-01-09T05:03:32;7.25;;;4.03;;
41546;SDS011;27271;45.412;10.852;2023-01-09T05:06:55;7.72;;;3.95;;
41546;SDS011;27271;45.412;10.852;2023-01-09T05:10:17;7.57;;;3.20;;
41546;SDS011;27271;45.412;10.852;2023-01-09T05:13:39;7.45;;;4.00;;
41546;SDS011;27271;45.412;10.852;2023-01-09T05:17:01;6.53;;;3.03;;
41546;SDS011;27271;45.412;10.852;2023-01-09T05:20:23;9.32;;;4.28;;
41546;SDS011;27271;45.412;10.852;2023-01-09T05:23:45;9.60;;;4.22;;
41546;SDS011;27271;45.412;10.852;2023-01-09T05:27:07;9.02;;;4.05;;
41546;SDS011;27271;45.412;10.852;2023-01-09T05:30:29;9.82;;;3.88;;
41546;SDS011;27271;45.412;10.852;2023-01-09T05:33:52;6.43;;;3.47;;
41546;SDS011;27271;45.412;10.852;2023-01-09T05:37:14;7.03;;;3.55;;
41546;SDS011;27271;45.412;10.852;2023-01-09T05:40:36;5.28;;;3.00;;
41546;SDS011;27271;45.412;10.852;2023-01-09T05:44:01;5.38;;;3.05;;
41546;SDS011;27271;45.412;10.852;2023-01-09T05:47:22;8.52;;;3.88;;
41546;SDS011;27271;45.412;10.852;2023-01-09T05:50:44;8.32;;;4.30;;
41546;SDS011;27271;45.412;10.852;2023-01-09T05:54:06;9.95;;;3.85;;
41546;SDS011;27271;45.412;10.852;2023-01-09T05:57:28;7.07;;;3.33;;
41546;SDS011;27271;45.412;10.852;2023-01-09T06:00:51;7.28;;;3.22;;
41546;SDS011;27271;45.412;10.852;2023-01-09T06:04:17;9.43;;;4.30;;
41546;SDS011;27271;45.412;10.852;2023-01-09T06:07:44;6.55;;;3.20;;
41546;SDS011;27271;45.412;10.852;2023-01-09T06:11:05;8.15;;;3.33;;
41546;SDS011;27271;45.412;10.852;2023-01-09T06:14:28;7.55;;;3.40;;
41546;SDS011;27271;45.412;10.852;2023-01-09T06:17:50;5.45;;;3.65;;
41546;SDS011;27271;45.412;10.852;2023-01-09T06:21:12;7.05;;;3.78;;
41546;SDS011;27271;45.412;10.852;2023-01-09T06:24:34;10.63;;;3.83;;
41546;SDS011;27271;45.412;10.852;2023-01-09T06:27:56;9.05;;;4.22;;
41546;SDS011;27271;45.412;10.852;2023-01-09T06:31:18;17.70;;;6.25;;
41546;SDS011;27271;45.412;10.852;2023-01-09T06:34:40;12.15;;;6.10;;
41546;SDS011;27271;45.412;10.852;2023-01-09T06:38:04;11.35;;;5.53;;
41546;SDS011;27271;45.412;10.852;2023-01-09T06:41:27;9.18;;;4.10;;
41546;SDS011;27271;45.412;10.852;2023-01-09T06:44:49;9.07;;;4.78;;
41546;SDS011;27271;45.412;10.852;2023-01-09T06:48:11;8.95;;;4.75;;
41546;SDS011;27271;45.412;10.852;2023-01-09T06:51:33;7.80;;;4.10;;
41546;SDS011;27271;45.412;10.852;2023-01-09T06:54:55;8.55;;;3.97;;
41546;SDS011;27271;45.412;10.852;2023-01-09T06:58:17;10.50;;;4.32;;
41546;SDS011;27271;45.412;10.852;2023-01-09T07:01:39;8.40;;;4.80;;
41546;SDS011;27271;45.412;10.852;2023-01-09T07:05:01;7.03;;;4.78;;
41546;SDS011;27271;45.412;10.852;2023-01-09T07:08:24;8.38;;;4.50;;
41546;SDS011;27271;45.412;10.852;2023-01-09T07:11:46;9.13;;;5.00;;
41546;SDS011;27271;45.412;10.852;2023-01-09T07:15:08;9.80;;;5.22;;
41546;SDS011;27271;45.412;10.852;2023-01-09T07:18:30;12.07;;;5.50;;
41546;SDS011;27271;45.412;10.852;2023-01-09T07:21:52;8.80;;;5.30;;
41546;SDS011;27271;45.412;10.852;2023-01-09T07:25:14;8.68;;;4.85;;
41546;SDS011;27271;45.412;10.852;2023-01-09T07:28:37;13.70;;;5.68;;
41546;SDS011;27271;45.412;10.852;2023-01-09T07:31:59;13.43;;;6.35;;
41546;SDS011;27271;45.412;10.852;2023-01-09T07:35:21;13.55;;;6.20;;
41546;SDS011;27271;45.412;10.852;2023-01-09T07:38:43;14.52;;;6.53;;
41546;SDS011;27271;45.412;10.852;2023-01-09T07:42:05;12.40;;;6.65;;
41546;SDS011;27271;45.412;10.852;2023-01-09T07:45:27;24.05;;;9.10;;
41546;SDS011;27271;45.412;10.852;2023-01-09T07:48:49;12.05;;;6.28;;
41546;SDS011;27271;45.412;10.852;2023-01-09T07:52:11;11.85;;;5.95;;
41546;SDS011;27271;45.412;10.852;2023-01-09T07:55:33;18.15;;;9.00;;
41546;SDS011;27271;45.412;10.852;2023-01-09T07:58:55;14.90;;;7.38;;
41546;SDS011;27271;45.412;10.852;2023-01-09T08:02:17;12.13;;;6.82;;
41546;SDS011;27271;45.412;10.852;2023-01-09T08:05:39;12.43;;;5.85;;
41546;SDS011;27271;45.412;10.852;2023-01-09T08:09:01;11.25;;;6.40;;
41546;SDS011;27271;45.412;10.852;2023-01-09T08:12:23;10.93;;;5.95;;
41546;SDS011;27271;45.412;10.852;2023-01-09T08:15:45;15.93;;;8.30;;
41546;SDS011;27271;45.412;10.852;2023-01-09T08:19:07;18.48;;;6.53;;
41546;SDS011;27271;45.412;10.852;2023-01-09T08:22:32;13.85;;;7.85;;
41546;SDS011;27271;45.412;10.852;2023-01-09T08:25:54;11.13;;;5.70;;
41546;SDS011;27271;45.412;10.852;2023-01-09T08:29:16;11.88;;;5.82;;
41546;SDS011;27271;45.412;10.852;2023-01-09T08:32:38;12.48;;;6.03;;
41546;SDS011;27271;45.412;10.852;2023-01-09T08:36:00;11.75;;;5.55;;
41546;SDS011;27271;45.412;10.852;2023-01-09T08:39:22;14.23;;;6.47;;
41546;SDS011;27271;45.412;10.852;2023-01-09T08:42:44;12.52;;;5.40;;
41546;SDS011;27271;45.412;10.852;2023-01-09T08:46:24;9.70;;;5.47;;
41546;SDS011;27271;45.412;10.852;2023-01-09T08:53:27;10.57;;;4.40;;
41546;SDS011;27271;45.412;10.852;2023-01-09T08:56:51;13.75;;;6.38;;
41546;SDS011;27271;45.412;10.852;2023-01-09T09:00:14;13.98;;;6.35;;
41546;SDS011;27271;45.412;10.852;2023-01-09T09:03:36;10.88;;;5.38;;
41546;SDS011;27271;45.412;10.852;2023-01-09T09:06:58;13.82;;;6.97;;
41546;SDS011;27271;45.412;10.852;2023-01-09T09:10:24;19.98;;;11.35;;
41546;SDS011;27271;45.412;10.852;2023-01-09T09:13:48;14.88;;;8.05;;
41546;SDS011;27271;45.412;10.852;2023-01-09T09:17:10;17.40;;;6.65;;
41546;SDS011;27271;45.412;10.852;2023-01-09T09:20:34;14.35;;;7.30;;
41546;SDS011;27271;45.412;10.852;2023-01-09T09:23:58;11.50;;;6.28;;
41546;SDS011;27271;45.412;10.852;2023-01-09T09:27:20;11.20;;;6.88;;
41546;SDS011;27271;45.412;10.852;2023-01-09T09:30:42;15.27;;;8.05;;
41546;SDS011;27271;45.412;10.852;2023-01-09T09:34:04;10.27;;;6.07;;
41546;SDS011;27271;45.412;10.852;2023-01-09T09:37:27;13.15;;;8.40;;
41546;SDS011;27271;45.412;10.852;2023-01-09T09:48:35;9.98;;;4.60;;
41546;SDS011;27271;45.412;10.852;2023-01-09T09:55:48;12.55;;;5.18;;
41546;SDS011;27271;45.412;10.852;2023-01-09T09:59:16;10.43;;;5.15;;
41546;SDS011;27271;45.412;10.852;2023-01-09T10:02:44;6.72;;;3.22;;
41546;SDS011;27271;45.412;10.852;2023-01-09T10:09:53;7.83;;;3.63;;
41546;SDS011;27271;45.412;10.852;2023-01-09T10:13:18;8.48;;;3.60;;
41546;SDS011;27271;45.412;10.852;2023-01-09T10:20:49;4.75;;;3.03;;
41546;SDS011;27271;45.412;10.852;2023-01-09T10:31:51;12.32;;;6.80;;
41546;SDS011;27271;45.412;10.852;2023-01-09T10:35:22;10.00;;;5.30;;
41546;SDS011;27271;45.412;10.852;2023-01-09T10:39:20;8.98;;;4.35;;
41546;SDS011;27271;45.412;10.852;2023-01-09T10:42:50;9.32;;;5.43;;
41546;SDS011;27271;45.412;10.852;2023-01-09T10:46:15;14.55;;;5.93;;
41546;SDS011;27271;45.412;10.852;2023-01-09T10:49:44;13.65;;;6.88;;
41546;SDS011;27271;45.412;10.852;2023-01-09T10:53:24;14.90;;;6.70;;
41546;SDS011;27271;45.412;10.852;2023-01-09T11:00:31;17.30;;;7.97;;
41546;SDS011;27271;45.412;10.852;2023-01-09T11:03:54;22.25;;;9.50;;
41546;SDS011;27271;45.412;10.852;2023-01-09T11:07:20;15.48;;;7.25;;
41546;SDS011;27271;45.412;10.852;2023-01-09T11:10:47;17.23;;;8.55;;
41546;SDS011;27271;45.412;10.852;2023-01-09T11:14:25;20.50;;;9.60;;
41546;SDS011;27271;45.412;10.852;2023-01-09T11:17:49;30.77;;;11.23;;
41546;SDS011;27271;45.412;10.852;2023-01-09T11:24:35;27.50;;;13.02;;
41546;SDS011;27271;45.412;10.852;2023-01-09T11:28:07;29.25;;;11.63;;
41546;SDS011;27271;45.412;10.852;2023-01-09T11:31:30;30.83;;;13.20;;
41546;SDS011;27271;45.412;10.852;2023-01-09T11:34:52;29.55;;;12.48;;
41546;SDS011;27271;45.412;10.852;2023-01-09T11:38:15;27.48;;;11.75;;
41546;SDS011;27271;45.412;10.852;2023-01-09T11:41:38;22.38;;;10.57;;
41546;SDS011;27271;45.412;10.852;2023-01-09T11:45:00;22.55;;;9.35;;
41546;SDS011;27271;45.412;10.852;2023-01-09T11:55:46;34.85;;;16.48;;
41546;SDS011;27271;45.412;10.852;2023-01-09T11:59:11;26.45;;;11.93;;
41546;SDS011;27271;45.412;10.852;2023-01-09T12:10:39;24.23;;;10.95;;
41546;SDS011;27271;45.412;10.852;2023-01-09T12:47:29;21.77;;;9.67;;
41546;SDS011;27271;45.412;10.852;2023-01-09T12:54:43;21.25;;;9.68;;
41546;SDS011;27271;45.412;10.852;2023-01-09T12:58:31;22.02;;;9.43;;
41546;SDS011;27271;45.412;10.852;2023-01-09T13:02:05;17.33;;;8.02;;
41546;SDS011;27271;45.412;10.852;2023-01-09T13:05:40;10.85;;;5.63;;
41546;SDS011;27271;45.412;10.852;2023-01-09T13:12:35;5.97;;;2.13;;
41546;SDS011;27271;45.412;10.852;2023-01-09T13:16:05;4.03;;;2.15;;
41546;SDS011;27271;45.412;10.852;2023-01-09T13:19:35;4.30;;;2.03;;
41546;SDS011;27271;45.412;10.852;2023-01-09T13:23:00;3.90;;;1.98;;
41546;SDS011;27271;45.412;10.852;2023-01-09T13:26:26;2.75;;;1.67;;
41546;SDS011;27271;45.412;10.852;2023-01-09T13:30:02;2.20;;;1.40;;
41546;SDS011;27271;45.412;10.852;2023-01-09T13:33:34;2.05;;;1.10;;
41546;SDS011;27271;45.412;10.852;2023-01-09T13:36:58;0.93;;;0.73;;
41546;SDS011;27271;45.412;10.852;2023-01-09T13:43:59;1.05;;;0.65;;
41546;SDS011;27271;45.412;10.852;2023-01-09T13:47:24;0.85;;;0.55;;
41546;SDS011;27271;45.412;10.852;2023-01-09T13:50:48;1.15;;;0.50;;
41546;SDS011;27271;45.412;10.852;2023-01-09T13:54:11;0.47;;;0.43;;
41546;SDS011;27271;45.412;10.852;2023-01-09T13:57:34;0.35;;;0.35;;
41546;SDS011;27271;45.412;10.852;2023-01-09T14:01:01;0.22;;;0.22;;
41546;SDS011;27271;45.412;10.852;2023-01-09T14:04:32;0.15;;;0.13;;
41546;SDS011;27271;45.412;10.852;2023-01-09T14:08:02;0.65;;;0.65;;
41546;SDS011;27271;45.412;10.852;2023-01-09T14:11:27;0.82;;;0.32;;
41546;SDS011;27271;45.412;10.852;2023-01-09T14:14:50;1.45;;;0.82;;
41546;SDS011;27271;45.412;10.852;2023-01-09T14:18:16;0.47;;;0.40;;
41546;SDS011;27271;45.412;10.852;2023-01-09T14:25:17;1.45;;;0.45;;
41546;SDS011;27271;45.412;10.852;2023-01-09T14:28:44;0.28;;;0.28;;
41546;SDS011;27271;45.412;10.852;2023-01-09T14:39:38;0.47;;;0.40;;
41546;SDS011;27271;45.412;10.852;2023-01-09T14:43:08;1.00;;;0.88;;
41546;SDS011;27271;45.412;10.852;2023-01-09T14:46:36;3.80;;;1.00;;
41546;SDS011;27271;45.412;10.852;2023-01-09T14:53:28;1.42;;;0.90;;
41546;SDS011;27271;45.412;10.852;2023-01-09T14:56:52;1.67;;;0.98;;
41546;SDS011;27271;45.412;10.852;2023-01-09T15:00:15;2.38;;;1.23;;
41546;SDS011;27271;45.412;10.852;2023-01-09T15:03:39;5.32;;;1.20;;
41546;SDS011;27271;45.412;10.852;2023-01-09T15:07:16;4.07;;;1.80;;
41546;SDS011;27271;45.412;10.852;2023-01-09T15:10:42;1.73;;;1.30;;
41546;SDS011;27271;45.412;10.852;2023-01-09T15:14:05;4.53;;;1.60;;
41546;SDS011;27271;45.412;10.852;2023-01-09T15:17:31;3.42;;;1.30;;
41546;SDS011;27271;45.412;10.852;2023-01-09T15:20:59;1.65;;;1.45;;
41546;SDS011;27271;45.412;10.852;2023-01-09T15:24:25;1.20;;;0.93;;
41546;SDS011;27271;45.412;10.852;2023-01-09T15:27:50;0.98;;;0.55;;
41546;SDS011;27271;45.412;10.852;2023-01-09T15:31:17;3.08;;;1.25;;
41546;SDS011;27271;45.412;10.852;2023-01-09T15:34:43;3.67;;;1.42;;
41546;SDS011;27271;45.412;10.852;2023-01-09T15:38:06;4.28;;;1.98;;
41546;SDS011;27271;45.412;10.852;2023-01-09T15:41:32;4.43;;;1.48;;
41546;SDS011;27271;45.412;10.852;2023-01-09T15:45:24;3.33;;;1.60;;
41546;SDS011;27271;45.412;10.852;2023-01-09T15:48:51;2.40;;;1.30;;
41546;SDS011;27271;45.412;10.852;2023-01-09T15:52:14;2.92;;;1.40;;
41546;SDS011;27271;45.412;10.852;2023-01-09T15:55:37;3.42;;;1.85;;
41546;SDS011;27271;45.412;10.852;2023-01-09T15:58:59;5.35;;;2.88;;
41546;SDS011;27271;45.412;10.852;2023-01-09T16:02:22;8.63;;;3.17;;
41546;SDS011;27271;45.412;10.852;2023-01-09T16:06:08;10.35;;;2.53;;
41546;SDS011;27271;45.412;10.852;2023-01-09T16:12:58;8.40;;;3.90;;
41546;SDS011;27271;45.412;10.852;2023-01-09T16:16:27;14.27;;;8.35;;
41546;SDS011;27271;45.412;10.852;2023-01-09T16:19:53;15.23;;;7.30;;
41546;SDS011;27271;45.412;10.852;2023-01-09T16:26:40;19.20;;;9.10;;
41546;SDS011;27271;45.412;10.852;2023-01-09T16:30:03;18.85;;;8.35;;
41546;SDS011;27271;45.412;10.852;2023-01-09T16:33:46;21.00;;;10.25;;
41546;SDS011;27271;45.412;10.852;2023-01-09T16:37:12;19.67;;;10.23;;
41546;SDS011;27271;45.412;10.852;2023-01-09T16:40:34;28.92;;;13.35;;
41546;SDS011;27271;45.412;10.852;2023-01-09T16:43:56;21.40;;;10.27;;
41546;SDS011;27271;45.412;10.852;2023-01-09T16:47:18;19.48;;;10.23;;
41546;SDS011;27271;45.412;10.852;2023-01-09T16:50:41;18.63;;;9.50;;
41546;SDS011;27271;45.412;10.852;2023-01-09T16:54:03;19.67;;;8.93;;
41546;SDS011;27271;45.412;10.852;2023-01-09T16:57:25;22.90;;;10.20;;
41546;SDS011;27271;45.412;10.852;2023-01-09T17:00:47;18.45;;;8.50;;
41546;SDS011;27271;45.412;10.852;2023-01-09T17:04:10;20.05;;;9.23;;
41546;SDS011;27271;45.412;10.852;2023-01-09T17:07:33;24.23;;;10.63;;
41546;SDS011;27271;45.412;10.852;2023-01-09T17:10:55;22.05;;;10.98;;
41546;SDS011;27271;45.412;10.852;2023-01-09T17:14:18;22.80;;;10.27;;
41546;SDS011;27271;45.412;10.852;2023-01-09T17:17:40;24.45;;;11.13;;
41546;SDS011;27271;45.412;10.852;2023-01-09T17:21:02;21.98;;;9.93;;
41546;SDS011;27271;45.412;10.852;2023-01-09T17:24:24;21.98;;;10.40;;
41546;SDS011;27271;45.412;10.852;2023-01-09T17:28:04;24.58;;;10.80;;
41546;SDS011;27271;45.412;10.852;2023-01-09T17:31:45;24.55;;;12.00;;
41546;SDS011;27271;45.412;10.852;2023-01-09T17:35:08;25.60;;;10.63;;
41546;SDS011;27271;45.412;10.852;2023-01-09T17:38:33;19.75;;;10.52;;
41546;SDS011;27271;45.412;10.852;2023-01-09T17:41:55;24.42;;;10.35;;
41546;SDS011;27271;45.412;10.852;2023-01-09T17:45:19;23.98;;;11.15;;
41546;SDS011;27271;45.412;10.852;2023-01-09T17:48:41;23.27;;;10.30;;
41546;SDS011;27271;45.412;10.852;2023-01-09T17:52:03;27.80;;;11.60;;
41546;SDS011;27271;45.412;10.852;2023-01-09T17:55:25;23.50;;;10.85;;
41546;SDS011;27271;45.412;10.852;2023-01-09T17:58:47;25.83;;;11.10;;
41546;SDS011;27271;45.412;10.852;2023-01-09T18:02:14;24.33;;;11.02;;
41546;SDS011;27271;45.412;10.852;2023-01-09T18:05:37;29.08;;;11.00;;
41546;SDS011;27271;45.412;10.852;2023-01-09T18:08:59;26.40;;;12.30;;
41546;SDS011;27271;45.412;10.852;2023-01-09T18:12:21;26.80;;;11.50;;
41546;SDS011;27271;45.412;10.852;2023-01-09T18:15:46;27.15;;;12.60;;
41546;SDS011;27271;45.412;10.852;2023-01-09T18:19:08;31.42;;;13.27;;
41546;SDS011;27271;45.412;10.852;2023-01-09T18:22:31;25.42;;;12.13;;
41546;SDS011;27271;45.412;10.852;2023-01-09T18:25:54;33.35;;;13.43;;
41546;SDS011;27271;45.412;10.852;2023-01-09T18:29:16;29.77;;;12.38;;
41546;SDS011;27271;45.412;10.852;2023-01-09T18:32:39;26.55;;;12.38;;
41546;SDS011;27271;45.412;10.852;2023-01-09T18:36:08;33.70;;;14.50;;
41546;SDS011;27271;45.412;10.852;2023-01-09T18:39:30;33.33;;;13.30;;
41546;SDS011;27271;45.412;10.852;2023-01-09T18:42:52;34.20;;;12.30;;
41546;SDS011;27271;45.412;10.852;2023-01-09T18:46:15;29.35;;;13.13;;
41546;SDS011;27271;45.412;10.852;2023-01-09T18:49:41;35.53;;;13.13;;
41546;SDS011;27271;45.412;10.852;2023-01-09T18:53:03;25.60;;;11.00;;
41546;SDS011;27271;45.412;10.852;2023-01-09T18:56:25;22.90;;;10.63;;
41546;SDS011;27271;45.412;10.852;2023-01-09T18:59:47;31.50;;;11.80;;
41546;SDS011;27271;45.412;10.852;2023-01-09T19:03:12;42.00;;;16.48;;
41546;SDS011;27271;45.412;10.852;2023-01-09T19:06:34;44.88;;;18.13;;
41546;SDS011;27271;45.412;10.852;2023-01-09T19:09:57;47.45;;;21.10;;
41546;SDS011;27271;45.412;10.852;2023-01-09T19:13:19;31.15;;;14.50;;
41546;SDS011;27271;45.412;10.852;2023-01-09T19:16:41;28.10;;;13.00;;
41546;SDS011;27271;45.412;10.852;2023-01-09T19:20:04;31.50;;;13.48;;
41546;SDS011;27271;45.412;10.852;2023-01-09T19:23:27;25.67;;;12.73;;
41546;SDS011;27271;45.412;10.852;2023-01-09T19:26:52;25.25;;;11.07;;
41546;SDS011;27271;45.412;10.852;2023-01-09T19:30:14;34.13;;;11.65;;
41546;SDS011;27271;45.412;10.852;2023-01-09T19:33:37;23.20;;;11.32;;
41546;SDS011;27271;45.412;10.852;2023-01-09T19:36:59;21.73;;;9.82;;
41546;SDS011;27271;45.412;10.852;2023-01-09T19:40:22;28.10;;;11.63;;
41546;SDS011;27271;45.412;10.852;2023-01-09T19:43:46;23.35;;;11.15;;
41546;SDS011;27271;45.412;10.852;2023-01-09T19:47:10;58.03;;;20.30;;
41546;SDS011;27271;45.412;10.852;2023-01-09T19:50:35;25.25;;;11.43;;
41546;SDS011;27271;45.412;10.852;2023-01-09T19:53:59;28.08;;;12.07;;
41546;SDS011;27271;45.412;10.852;2023-01-09T19:57:24;27.67;;;12.80;;
41546;SDS011;27271;45.412;10.852;2023-01-09T20:01:03;29.25;;;12.18;;
41546;SDS011;27271;45.412;10.852;2023-01-09T20:04:47;44.78;;;17.73;;
41546;SDS011;27271;45.412;10.852;2023-01-09T20:08:09;24.40;;;10.18;;
41546;SDS011;27271;45.412;10.852;2023-01-09T20:11:32;25.40;;;12.73;;
41546;SDS011;27271;45.412;10.852;2023-01-09T20:15:00;32.88;;;12.35;;
41546;SDS011;27271;45.412;10.852;2023-01-09T20:18:23;26.95;;;11.43;;
41546;SDS011;27271;45.412;10.852;2023-01-09T20:21:46;28.67;;;13.35;;
41546;SDS011;27271;45.412;10.852;2023-01-09T20:25:12;22.95;;;11.50;;
41546;SDS011;27271;45.412;10.852;2023-01-09T20:28:34;23.90;;;9.80;;
41546;SDS011;27271;45.412;10.852;2023-01-09T20:31:57;26.75;;;11.10;;
41546;SDS011;27271;45.412;10.852;2023-01-09T20:35:21;24.90;;;10.50;;
41546;SDS011;27271;45.412;10.852;2023-01-09T20:38:43;30.27;;;12.32;;
41546;SDS011;27271;45.412;10.852;2023-01-09T20:42:06;25.95;;;11.95;;
41546;SDS011;27271;45.412;10.852;2023-01-09T20:45:28;28.55;;;11.38;;
41546;SDS011;27271;45.412;10.852;2023-01-09T20:48:53;28.58;;;12.63;;
41546;SDS011;27271;45.412;10.852;2023-01-09T20:52:17;26.27;;;10.30;;
41546;SDS011;27271;45.412;10.852;2023-01-09T20:55:56;26.38;;;10.88;;
41546;SDS011;27271;45.412;10.852;2023-01-09T20:59:24;18.40;;;10.63;;
41546;SDS011;27271;45.412;10.852;2023-01-09T21:02:46;20.40;;;10.05;;
41546;SDS011;27271;45.412;10.852;2023-01-09T21:06:09;24.15;;;9.63;;
41546;SDS011;27271;45.412;10.852;2023-01-09T21:09:33;26.25;;;10.35;;
41546;SDS011;27271;45.412;10.852;2023-01-09T21:12:55;23.73;;;10.40;;
41546;SDS011;27271;45.412;10.852;2023-01-09T21:16:19;21.98;;;10.43;;
41546;SDS011;27271;45.412;10.852;2023-01-09T21:19:45;20.65;;;9.68;;
41546;SDS011;27271;45.412;10.852;2023-01-09T21:23:11;28.35;;;10.32;;
41546;SDS011;27271;45.412;10.852;2023-01-09T21:26:34;20.95;;;9.40;;
41546;SDS011;27271;45.412;10.852;2023-01-09T21:29:57;22.27;;;9.95;;
41546;SDS011;27271;45.412;10.852;2023-01-09T21:33:20;18.40;;;8.85;;
41546;SDS011;27271;45.412;10.852;2023-01-09T21:36:43;21.67;;;8.85;;
41546;SDS011;27271;45.412;10.852;2023-01-09T21:40:07;24.73;;;11.43;;
41546;SDS011;27271;45.412;10.852;2023-01-09T21:43:38;21.25;;;9.93;;
41546;SDS011;27271;45.412;10.852;2023-01-09T21:47:20;29.33;;;11.00;;
41546;SDS011;27271;45.412;10.852;2023-01-09T21:50:43;24.65;;;11.68;;
41546;SDS011;27271;45.412;10.852;2023-01-09T21:54:06;24.42;;;11.10;;
41546;SDS011;27271;45.412;10.852;2023-01-09T21:57:29;26.00;;;12.05;;
41546;SDS011;27271;45.412;10.852;2023-01-09T22:00:55;25.55;;;10.55;;
41546;SDS011;27271;45.412;10.852;2023-01-09T22:04:18;28.98;;;12.23;;
41546;SDS011;27271;45.412;10.852;2023-01-09T22:07:43;25.75;;;10.75;;
41546;SDS011;27271;45.412;10.852;2023-01-09T22:11:05;24.15;;;11.32;;
41546;SDS011;27271;45.412;10.852;2023-01-09T22:14:27;27.75;;;11.48;;
41546;SDS011;27271;45.412;10.852;2023-01-09T22:17:49;21.95;;;9.32;;
41546;SDS011;27271;45.412;10.852;2023-01-09T22:21:11;28.35;;;10.85;;
41546;SDS011;27271;45.412;10.852;2023-01-09T22:24:33;24.77;;;9.68;;
41546;SDS011;27271;45.412;10.852;2023-01-09T22:27:55;21.00;;;10.50;;